»·PEaware :: N133TC KSBA-KBUR

N133TC :: KSBA-KBUR

FLIGHT INFORMATION

Flight Status: Arrived
Operator: Privately registered:
United States
More flights under this callsign
Pilot: Chris S. (32055)
Aircraft: DIAMOND DA-42 TWINSTAR
(DA42)
More flights by this aircraft type
Origin: KSBA Santa Barbara Mun
United States
Destination: KBUR Bob Hope-Burbank
United States
More flights between these airports :: More routes between these airports
Route: +
File this flight plan on PilotEdge
Remarks:
Altitude:
(Current/Filed)
7,500ft
Speed:
(Current/Filed)
180kts
Departed: 25-Oct-20 02:40 PM
Arrived: 25-Oct-20 03:52 PM
Distance/Time
Traveled:
75nm/1:12
Distance/Time
To Go:
Arrived

Flight Plot

Page will automatically refresh every two minutes.


Map Options




Map Legend


Flown Route
Filed Route
Departure Airport
Arrival Airport
Navaid (VOR, NDB)
Fix

Horizontal Profiles

Position Reports

Time Latitude Longitude Heading Altitude Ground
Speed
25-Oct-20 14:19 34.424014 -119.836930 73 16ft 0kts
25-Oct-20 14:20 34.424014 -119.836930 73 16ft 0kts
25-Oct-20 14:21 34.424014 -119.836930 73 16ft 0kts
25-Oct-20 14:22 34.424014 -119.836930 73 16ft 0kts
25-Oct-20 14:23 34.424014 -119.836930 73 16ft 0kts
25-Oct-20 14:24 34.424014 -119.836930 73 16ft 0kts
25-Oct-20 14:25 34.424014 -119.836930 73 16ft 0kts
25-Oct-20 14:26 34.424014 -119.836930 73 16ft 0kts
25-Oct-20 14:27 34.424014 -119.836930 73 16ft 0kts
25-Oct-20 14:28 34.424014 -119.836930 73 16ft 0kts
25-Oct-20 14:29 34.424014 -119.836930 73 16ft 0kts
25-Oct-20 14:30 34.423924 -119.837239 70 17ft 2kts
25-Oct-20 14:31 34.423948 -119.837362 7 17ft 3kts
25-Oct-20 14:32 34.424795 -119.837871 339 18ft 16kts
25-Oct-20 14:33 34.426868 -119.833666 88 14ft 20kts
25-Oct-20 14:34 34.427215 -119.831888 45 11ft 0kts
25-Oct-20 14:35 34.427217 -119.831769 126 11ft 5kts
25-Oct-20 14:36 34.426846 -119.832888 269 13ft 18kts
25-Oct-20 14:37 34.427133 -119.834533 326 15ft 0kts
25-Oct-20 14:38 34.427133 -119.834533 326 15ft 0kts
25-Oct-20 14:39 34.427655 -119.853892 268 285ft 110kts
25-Oct-20 14:49 34.424014 -119.836930 73 16ft 0kts
25-Oct-20 14:50 34.423946 -119.837154 70 17ft 2kts
25-Oct-20 14:51 34.423893 -119.837337 70 17ft 0kts
25-Oct-20 14:52 34.423893 -119.837337 70 17ft 0kts
25-Oct-20 14:53 34.423893 -119.837337 70 17ft 0kts
25-Oct-20 14:54 34.423893 -119.837337 70 17ft 0kts
25-Oct-20 14:55 34.423893 -119.837337 70 17ft 0kts
25-Oct-20 14:56 34.423893 -119.837337 70 17ft 0kts
25-Oct-20 14:57 34.423893 -119.837337 70 17ft 0kts
25-Oct-20 14:58 34.424811 -119.837735 348 18ft 17kts
25-Oct-20 14:59 34.426907 -119.834539 37 15ft 14kts
25-Oct-20 15:00 34.427083 -119.834423 28 15ft 0kts
25-Oct-20 15:01 34.427548 -119.834599 328 15ft 16kts
25-Oct-20 15:02 34.427450 -119.864516 272 400ft 136kts
25-Oct-20 15:03 34.428465 -119.912405 270 1428ft 143kts
25-Oct-20 15:04 34.429098 -119.955007 271 1519ft 171kts
25-Oct-20 15:05 34.429098 -119.955007 271 1519ft 171kts
25-Oct-20 15:06 34.429177 -120.011774 260 1453ft 174kts
25-Oct-20 15:07 34.403307 -120.051146 207 1455ft 150kts
25-Oct-20 15:08 34.378366 -120.026141 93 1454ft 151kts
25-Oct-20 15:09 34.383814 -119.976933 62 1456ft 151kts
25-Oct-20 15:10 34.384935 -119.973846 70 1454ft 151kts
25-Oct-20 15:11 34.385865 -119.969848 77 1456ft 151kts
25-Oct-20 15:12 34.390309 -119.921208 84 1455ft 151kts
25-Oct-20 15:13 34.393785 -119.868280 87 1454ft 173kts
25-Oct-20 15:14 34.394534 -119.816542 95 1456ft 149kts
25-Oct-20 15:15 34.389945 -119.769926 96 2001ft 129kts
25-Oct-20 15:16 34.385837 -119.727014 96 2529ft 137kts
25-Oct-20 15:17 34.381516 -119.680101 96 2554ft 150kts
25-Oct-20 15:18 34.376856 -119.629244 96 2555ft 151kts
25-Oct-20 15:19 34.372386 -119.578589 96 2567ft 150kts
25-Oct-20 15:20 34.368511 -119.534470 96 3453ft 128kts
25-Oct-20 15:21 34.364334 -119.487110 96 3552ft 150kts
25-Oct-20 15:22 34.359894 -119.435950 96 3558ft 153kts
25-Oct-20 15:23 34.356592 -119.384343 90 3554ft 154kts
25-Oct-20 15:24 34.350802 -119.333132 100 3551ft 153kts
25-Oct-20 15:25 34.343244 -119.282457 100 3558ft 153kts
25-Oct-20 15:26 34.335566 -119.231707 100 3555ft 154kts
25-Oct-20 15:27 34.334778 -119.180619 84 3551ft 153kts
25-Oct-20 15:28 34.331155 -119.129514 99 3555ft 153kts
25-Oct-20 15:29 34.317972 -119.084342 117 3555ft 153kts
25-Oct-20 15:30 34.305721 -119.035746 99 3555ft 153kts
25-Oct-20 15:31 34.298019 -118.984789 100 3554ft 153kts
25-Oct-20 15:32 34.290252 -118.934188 100 3554ft 153kts
25-Oct-20 15:33 34.282449 -118.883433 100 3554ft 153kts
25-Oct-20 15:35 34.274671 -118.832858 100 3555ft 153kts
25-Oct-20 15:36 34.266825 -118.782160 100 3564ft 153kts
25-Oct-20 15:37 34.258947 -118.731519 100 3564ft 153kts
25-Oct-20 15:38 34.251051 -118.680696 100 3565ft 154kts
25-Oct-20 15:39 34.242989 -118.629035 100 3419ft 158kts
25-Oct-20 15:40 34.235170 -118.578956 100 3228ft 158kts
25-Oct-20 15:41 34.226103 -118.526983 108 3025ft 157kts
25-Oct-20 15:42 34.209148 -118.478192 116 2551ft 165kts
25-Oct-20 15:43 34.195364 -118.429037 81 1765ft 141kts
25-Oct-20 15:44 34.198118 -118.394892 88 1031ft 94kts
25-Oct-20 15:45 34.198486 -118.370081 86 1012ft 101kts
25-Oct-20 15:46 34.201125 -118.337417 20 1936ft 94kts
25-Oct-20 15:47 34.210615 -118.336528 329 2331ft 92kts
25-Oct-20 15:48 34.210615 -118.336528 329 2331ft 92kts
25-Oct-20 15:49 34.214620 -118.342434 278 2121ft 115kts
25-Oct-20 15:50 34.207773 -118.379603 249 1489ft 121kts
25-Oct-20 15:51 34.197846 -118.369616 88 797ft 95kts
25-Oct-20 15:52 34.199369 -118.359872 22 716ft 0kts
25-Oct-20 15:53 34.199363 -118.359875 22 716ft 1kts
25-Oct-20 15:53 34.198984 -118.360065 22 716ft 2kts
25-Oct-20 15:54 34.198794 -118.360160 22 716ft 0kts
25-Oct-20 15:55 34.198794 -118.360160 22 716ft 0kts

Navigation Log

Ident Type
Flight plan parsing failed, navigation log unavailable